createdAt,value
2022-09-09T00:00:55.917Z,18.38
2022-09-09T00:01:56.127Z,18.35
2022-09-09T00:02:56.351Z,18.34
2022-09-09T00:03:56.457Z,18.35
2022-09-09T00:04:56.616Z,18.33
2022-09-09T00:05:56.778Z,18.33
2022-09-09T00:06:56.926Z,18.29
2022-09-09T00:07:57.146Z,18.31
2022-09-09T00:08:57.304Z,18.28
2022-09-09T00:09:57.467Z,18.28
2022-09-09T00:10:57.627Z,18.28
2022-09-09T00:11:57.788Z,18.26
2022-09-09T00:12:58.056Z,18.23
2022-09-09T00:13:58.126Z,18.23
2022-09-09T00:14:58.287Z,18.22
2022-09-09T00:15:58.499Z,18.20
2022-09-09T00:16:58.620Z,18.19
2022-09-09T00:17:58.807Z,18.18
2022-09-09T00:18:58.968Z,18.18
2022-09-09T00:19:59.141Z,18.16
2022-09-09T00:20:59.310Z,18.16
2022-09-09T00:21:59.464Z,18.15
2022-09-09T00:22:59.651Z,18.13
2022-09-09T00:23:59.814Z,18.11
2022-09-09T00:24:59.980Z,18.11
2022-09-09T00:26:00.140Z,18.08
2022-09-09T00:27:00.303Z,18.10
2022-09-09T00:28:00.478Z,18.07
2022-09-09T00:29:00.637Z,18.05
2022-09-09T00:30:00.835Z,18.07
2022-09-09T00:31:01.004Z,18.07
2022-09-09T00:32:01.157Z,18.05
2022-09-09T00:33:01.337Z,18.04
2022-09-09T00:34:01.498Z,18.04
2022-09-09T00:35:01.658Z,18.04
2022-09-09T00:36:01.823Z,18.04
2022-09-09T00:37:01.978Z,18.04
2022-09-09T00:38:02.157Z,18.03
2022-09-09T00:39:02.327Z,18.01
2022-09-09T00:40:02.527Z,18.01
2022-09-09T00:41:02.658Z,18.03
2022-09-09T00:42:02.866Z,18.00
2022-09-09T00:43:03.047Z,17.98
2022-09-09T00:44:03.211Z,17.97
2022-09-09T00:45:03.368Z,17.98
2022-09-09T00:46:03.575Z,17.97
2022-09-09T00:47:03.718Z,17.94
2022-09-09T00:48:03.906Z,17.95
2022-09-09T00:49:04.058Z,17.94
2022-09-09T00:50:04.248Z,17.92
2022-09-09T00:51:04.407Z,17.90
2022-09-09T00:52:04.608Z,17.90
2022-09-09T00:53:04.807Z,17.92
2022-09-09T00:54:04.929Z,17.89
2022-09-09T00:55:05.096Z,17.89
2022-09-09T00:56:05.258Z,17.87
2022-09-09T00:57:05.418Z,17.85
2022-09-09T00:58:05.607Z,17.85
2022-09-09T00:59:05.738Z,17.83
2022-09-09T01:00:05.898Z,17.85
2022-09-09T01:01:06.107Z,17.82
2022-09-09T01:02:06.264Z,17.82
2022-09-09T01:03:06.429Z,17.82
2022-09-09T01:04:06.602Z,17.83
2022-09-09T01:05:06.748Z,17.82
2022-09-09T01:06:06.940Z,17.80
2022-09-09T01:07:07.120Z,17.80
2022-09-09T01:08:07.288Z,17.79
2022-09-09T01:09:07.450Z,17.78
2022-09-09T01:10:07.608Z,17.78
2022-09-09T01:11:07.786Z,17.78
2022-09-09T01:12:07.949Z,17.74
2022-09-09T01:13:08.136Z,17.76
2022-09-09T01:14:08.299Z,17.76
2022-09-09T01:15:08.468Z,17.76
2022-09-09T01:16:08.629Z,17.76
2022-09-09T01:17:08.791Z,17.76
2022-09-09T01:18:08.985Z,17.74
2022-09-09T01:19:09.118Z,17.72
2022-09-09T01:20:09.281Z,17.76
2022-09-09T01:21:09.468Z,17.74
2022-09-09T01:22:09.628Z,17.71
2022-09-09T01:23:09.830Z,17.71
2022-09-09T01:24:09.949Z,17.70
2022-09-09T01:25:10.148Z,17.70
2022-09-09T01:26:10.327Z,17.70
2022-09-09T01:27:10.469Z,17.68
2022-09-09T01:28:10.654Z,17.70
2022-09-09T01:29:10.809Z,17.67
2022-09-09T01:30:10.987Z,17.70
2022-09-09T01:31:11.291Z,17.67
2022-09-09T01:32:11.329Z,17.67
2022-09-09T01:33:11.521Z,17.67
2022-09-09T01:34:11.671Z,17.67
2022-09-09T01:35:11.837Z,17.65
2022-09-09T01:36:11.988Z,17.65
2022-09-09T01:37:12.188Z,17.63
2022-09-09T01:38:12.369Z,17.63
2022-09-09T01:39:12.510Z,17.63
2022-09-09T01:40:12.725Z,17.60
2022-09-09T01:41:12.859Z,17.64
2022-09-09T01:42:13.017Z,17.60
2022-09-09T01:43:13.209Z,17.63
2022-09-09T01:44:13.329Z,17.60
2022-09-09T01:45:13.529Z,17.63
2022-09-09T01:46:13.710Z,17.60
2022-09-09T01:47:13.859Z,17.59
2022-09-09T01:48:14.039Z,17.59
2022-09-09T01:49:14.200Z,17.59
2022-09-09T01:50:14.390Z,17.57
2022-09-09T01:51:14.549Z,17.59
2022-09-09T01:52:14.718Z,17.57
2022-09-09T01:53:14.899Z,17.56
2022-09-09T01:54:15.049Z,17.56
2022-09-09T01:55:15.249Z,17.54
2022-09-09T01:56:15.399Z,17.49
2022-09-09T01:57:15.608Z,17.51
2022-09-09T01:58:15.779Z,17.51
2022-09-09T01:59:15.939Z,17.51
2022-09-09T02:00:16.109Z,17.49
2022-09-09T02:01:16.367Z,17.49
2022-09-09T02:02:16.486Z,17.49
2022-09-09T02:03:17.151Z,17.49
2022-09-09T02:04:16.821Z,17.48
2022-09-09T02:05:16.970Z,17.48
2022-09-09T02:06:17.161Z,17.49
2022-09-09T02:07:17.319Z,17.48
2022-09-09T02:08:17.499Z,17.48
2022-09-09T02:09:17.683Z,17.49
2022-09-09T02:10:17.829Z,17.46
2022-09-09T02:11:18.030Z,17.46
2022-09-09T02:12:18.213Z,17.45
2022-09-09T02:13:18.381Z,17.46
2022-09-09T02:14:18.549Z,17.44
2022-09-09T02:15:18.713Z,17.46
2022-09-09T02:16:18.911Z,17.45
2022-09-09T02:17:19.067Z,17.46
2022-09-09T02:18:19.230Z,17.46
2022-09-09T02:19:19.420Z,17.44
2022-09-09T02:20:19.584Z,17.46
2022-09-09T02:21:19.740Z,17.45
2022-09-09T02:22:19.910Z,17.44
2022-09-09T02:23:20.165Z,17.45
2022-09-09T02:24:20.255Z,17.44
2022-09-09T02:25:20.410Z,17.44
2022-09-09T02:26:20.616Z,17.44
2022-09-09T02:27:20.760Z,17.45
2022-09-09T02:28:20.920Z,17.44
2022-09-09T02:29:21.080Z,17.45
2022-09-09T02:30:21.363Z,17.42
2022-09-09T02:31:21.423Z,17.41
2022-09-09T02:32:21.559Z,17.41
2022-09-09T02:33:21.749Z,17.44
2022-09-09T02:34:21.909Z,17.41
2022-09-09T02:35:22.078Z,17.41
2022-09-09T02:36:22.230Z,17.39
2022-09-09T02:37:22.399Z,17.41
2022-09-09T02:38:22.571Z,17.41
2022-09-09T02:39:22.738Z,17.38
2022-09-09T02:40:22.900Z,17.39
2022-09-09T02:41:23.060Z,17.39
2022-09-09T02:42:23.216Z,17.39
2022-09-09T02:43:23.431Z,17.36
2022-09-09T02:44:23.581Z,17.38
2022-09-09T02:45:23.751Z,17.36
2022-09-09T02:46:23.936Z,17.34
2022-09-09T02:47:24.070Z,17.34
2022-09-09T02:48:24.281Z,17.33
2022-09-09T02:49:24.482Z,17.33
2022-09-09T02:50:24.624Z,17.31
2022-09-09T02:51:24.771Z,17.33
2022-09-09T02:52:24.941Z,17.34
2022-09-09T02:53:25.153Z,17.34
2022-09-09T02:54:25.310Z,17.34
2022-09-09T02:55:25.473Z,17.31
2022-09-09T02:56:25.630Z,17.33
2022-09-09T02:57:25.820Z,17.34
2022-09-09T02:58:25.991Z,17.34
2022-09-09T02:59:26.140Z,17.33
2022-09-09T03:00:26.308Z,17.30
2022-09-09T03:01:26.528Z,17.30
2022-09-09T03:02:26.705Z,17.29
2022-09-09T03:03:26.841Z,17.26
2022-09-09T03:04:26.991Z,17.27
2022-09-09T03:05:27.162Z,17.27
2022-09-09T03:06:27.311Z,17.27
2022-09-09T03:07:27.482Z,17.27
2022-09-09T03:08:27.662Z,17.26
2022-09-09T03:09:27.831Z,17.27
2022-09-09T03:10:27.998Z,17.27
2022-09-09T03:11:28.159Z,17.26
2022-09-09T03:12:28.320Z,17.23
2022-09-09T03:13:28.500Z,17.23
2022-09-09T03:14:28.663Z,17.23
2022-09-09T03:15:28.861Z,17.23
2022-09-09T03:16:29.045Z,17.23
2022-09-09T03:17:29.199Z,17.23
2022-09-09T03:18:29.460Z,17.23
2022-09-09T03:19:29.532Z,17.23
2022-09-09T03:20:29.691Z,17.23
2022-09-09T03:21:29.869Z,17.23
2022-09-09T03:22:30.023Z,17.22
2022-09-09T03:23:30.201Z,17.20
2022-09-09T03:24:30.367Z,17.20
2022-09-09T03:25:30.528Z,17.19
2022-09-09T03:26:30.701Z,17.19
2022-09-09T03:27:30.861Z,17.20
2022-09-09T03:28:31.041Z,17.16
2022-09-09T03:29:31.210Z,17.19
2022-09-09T03:30:31.361Z,17.19
2022-09-09T03:31:31.654Z,17.19
2022-09-09T03:32:31.692Z,17.16
2022-09-09T03:33:31.891Z,17.16
2022-09-09T03:34:32.060Z,17.16
2022-09-09T03:35:32.223Z,17.15
2022-09-09T03:36:32.382Z,17.15
2022-09-09T03:37:32.551Z,17.14
2022-09-09T03:38:32.750Z,17.15
2022-09-09T03:39:32.965Z,17.14
2022-09-09T03:40:33.061Z,17.14
2022-09-09T03:41:33.223Z,17.11
2022-09-09T03:42:33.393Z,17.11
2022-09-09T03:43:33.562Z,17.06
2022-09-09T03:44:33.721Z,17.05
2022-09-09T03:45:33.978Z,17.05
2022-09-09T03:46:34.101Z,17.06
2022-09-09T03:47:34.263Z,17.08
2022-09-09T03:48:34.503Z,17.09
2022-09-09T03:49:34.611Z,17.08
2022-09-09T03:50:34.776Z,17.08
2022-09-09T03:51:34.932Z,17.08
2022-09-09T03:52:35.095Z,17.11
2022-09-09T03:53:35.275Z,17.11
2022-09-09T03:54:35.433Z,17.11
2022-09-09T03:55:35.593Z,17.09
2022-09-09T03:56:35.751Z,17.11
2022-09-09T03:57:35.975Z,17.11
2022-09-09T03:58:36.154Z,17.09
2022-09-09T03:59:36.293Z,17.11
2022-09-09T04:00:36.443Z,17.11
2022-09-09T04:01:36.642Z,17.09
2022-09-09T04:02:36.841Z,17.08
2022-09-09T04:03:37.012Z,17.09
2022-09-09T04:04:37.172Z,17.06
2022-09-09T04:05:37.370Z,17.09
2022-09-09T04:06:37.536Z,17.08
2022-09-09T04:07:37.692Z,17.09
2022-09-09T04:08:38.044Z,17.08
2022-09-09T04:09:38.032Z,17.09
2022-09-09T04:10:38.205Z,17.08
2022-09-09T04:11:38.361Z,17.09
2022-09-09T04:12:38.561Z,17.09
2022-09-09T04:13:38.754Z,17.09
2022-09-09T04:14:38.892Z,17.06
2022-09-09T04:15:39.078Z,17.08
2022-09-09T04:16:39.280Z,17.08
2022-09-09T04:17:39.454Z,17.09
2022-09-09T04:18:39.663Z,17.09
2022-09-09T04:19:39.820Z,17.09
2022-09-09T04:20:39.992Z,17.08
2022-09-09T04:21:40.172Z,17.09
2022-09-09T04:22:40.352Z,17.09
2022-09-09T04:23:40.562Z,17.08
2022-09-09T04:24:40.702Z,17.09
2022-09-09T04:25:40.897Z,17.08
2022-09-09T04:26:41.063Z,17.11
2022-09-09T04:27:41.210Z,17.09
2022-09-09T04:28:41.381Z,17.11
2022-09-09T04:29:41.522Z,17.11
2022-09-09T04:30:41.714Z,17.11
2022-09-09T04:31:41.934Z,17.12
2022-09-09T04:32:42.111Z,17.12
2022-09-09T04:33:42.272Z,17.12
2022-09-09T04:34:42.415Z,17.14
2022-09-09T04:35:42.592Z,17.14
2022-09-09T04:36:42.756Z,17.14
2022-09-09T04:37:42.939Z,17.16
2022-09-09T04:38:43.102Z,17.16
2022-09-09T04:39:43.302Z,17.15
2022-09-09T04:40:43.412Z,17.16
2022-09-09T04:41:43.605Z,17.16
2022-09-09T04:42:43.752Z,17.16
2022-09-09T04:43:43.943Z,17.22
2022-09-09T04:44:44.083Z,17.22
2022-09-09T04:45:44.338Z,17.23
2022-09-09T04:46:44.442Z,17.23
2022-09-09T04:47:44.713Z,17.27
2022-09-09T04:48:44.783Z,17.29
2022-09-09T04:49:44.933Z,17.29
2022-09-09T04:50:45.113Z,17.31
2022-09-09T04:51:45.334Z,17.31
2022-09-09T04:52:45.474Z,17.36
2022-09-09T04:53:45.690Z,17.38
2022-09-09T04:54:45.854Z,17.41
2022-09-09T04:55:46.014Z,17.42
2022-09-09T04:56:46.173Z,17.45
2022-09-09T04:57:46.333Z,17.48
2022-09-09T04:58:46.511Z,17.51
2022-09-09T04:59:46.673Z,17.56
2022-09-09T05:00:46.921Z,17.59
2022-09-09T05:01:47.085Z,17.60
2022-09-09T05:02:47.213Z,17.64
2022-09-09T05:03:47.416Z,17.65
2022-09-09T05:04:47.557Z,17.70
2022-09-09T05:05:47.742Z,17.70
2022-09-09T05:06:47.923Z,17.72
2022-09-09T05:07:48.123Z,17.76
2022-09-09T05:08:48.283Z,17.85
2022-09-09T05:09:48.453Z,17.87
2022-09-09T05:10:48.633Z,17.92
2022-09-09T05:11:48.825Z,17.97
2022-09-09T05:12:49.003Z,18.03
2022-09-09T05:13:49.203Z,18.05
2022-09-09T05:14:49.344Z,18.07
2022-09-09T05:15:49.523Z,18.07
2022-09-09T05:16:49.704Z,18.10
2022-09-09T05:17:49.889Z,18.13
2022-09-09T05:18:50.093Z,18.16
2022-09-09T05:19:50.233Z,18.19
2022-09-09T05:20:50.414Z,18.25
2022-09-09T05:21:50.593Z,18.29
2022-09-09T05:22:50.774Z,18.34
2022-09-09T05:23:50.974Z,18.38
2022-09-09T05:24:51.153Z,18.40
2022-09-09T05:25:51.314Z,18.40
2022-09-09T05:26:51.463Z,18.38
2022-09-09T05:27:51.655Z,18.40
2022-09-09T05:28:51.863Z,18.44
2022-09-09T05:29:51.994Z,18.43
2022-09-09T05:30:52.184Z,18.41
2022-09-09T05:31:52.450Z,18.43
2022-09-09T05:32:52.534Z,18.44
2022-09-09T05:33:52.743Z,18.45
2022-09-09T05:34:52.884Z,18.45
2022-09-09T05:35:53.065Z,18.44
2022-09-09T05:36:53.255Z,18.45
2022-09-09T05:37:53.424Z,18.43
2022-09-09T05:38:53.626Z,18.44
2022-09-09T05:39:53.858Z,18.44
2022-09-09T05:40:53.974Z,18.44
2022-09-09T05:41:54.154Z,18.45
2022-09-09T05:42:54.344Z,18.44
2022-09-09T05:43:54.525Z,18.41
2022-09-09T05:44:54.715Z,18.41
2022-09-09T05:45:54.894Z,18.45
2022-09-09T05:46:55.137Z,18.47
2022-09-09T05:47:55.298Z,18.50
2022-09-09T05:48:55.435Z,18.52
2022-09-09T05:49:55.624Z,18.50
2022-09-09T05:50:55.804Z,18.53
2022-09-09T05:51:55.984Z,18.56
2022-09-09T05:52:56.165Z,18.58
2022-09-09T05:53:56.364Z,18.59
2022-09-09T05:54:56.514Z,18.62
2022-09-09T05:55:56.755Z,18.65
2022-09-09T05:56:56.866Z,18.70
2022-09-09T05:57:57.052Z,18.73
2022-09-09T05:58:57.355Z,18.71
2022-09-09T05:59:57.443Z,18.71
2022-09-09T06:00:57.565Z,18.73
2022-09-09T06:01:57.922Z,18.77
2022-09-09T06:02:58.030Z,18.80
2022-09-09T06:03:58.114Z,18.83
2022-09-09T06:05:00.635Z,18.86
2022-09-09T06:05:58.454Z,18.88
2022-09-09T06:06:58.705Z,18.86
2022-09-09T06:07:58.825Z,18.89
2022-09-09T06:08:58.995Z,18.93
2022-09-09T06:09:59.135Z,18.92
2022-09-09T06:10:59.364Z,18.90
2022-09-09T06:11:59.484Z,18.93
2022-09-09T06:12:59.683Z,18.96
2022-09-09T06:13:59.855Z,19.04
2022-09-09T06:14:59.995Z,19.09
2022-09-09T06:16:00.210Z,19.16
2022-09-09T06:17:00.368Z,19.19
2022-09-09T06:18:00.546Z,19.22
2022-09-09T06:19:00.745Z,19.27
2022-09-09T06:20:00.922Z,19.29
2022-09-09T06:21:01.123Z,19.30
2022-09-09T06:22:01.265Z,19.27
2022-09-09T06:23:01.445Z,19.27
2022-09-09T06:24:01.854Z,19.33
2022-09-09T06:25:01.806Z,19.37
2022-09-09T06:26:02.949Z,19.44
2022-09-09T06:27:02.176Z,19.49
2022-09-09T06:28:02.345Z,19.55
2022-09-09T06:29:02.548Z,19.64
2022-09-09T06:30:02.739Z,19.70
2022-09-09T06:31:02.933Z,19.79
2022-09-09T06:32:03.103Z,19.86
2022-09-09T06:33:03.225Z,19.95
2022-09-09T06:34:03.446Z,20.03
2022-09-09T06:35:03.586Z,20.07
2022-09-09T06:36:03.787Z,20.14
2022-09-09T06:37:03.967Z,20.19
2022-09-09T06:38:04.147Z,20.29
2022-09-09T06:39:04.348Z,20.32
2022-09-09T06:40:04.573Z,20.40
2022-09-09T06:41:04.676Z,20.47
2022-09-09T06:42:04.857Z,20.51
2022-09-09T06:43:05.045Z,20.56
2022-09-09T06:44:05.235Z,20.59
2022-09-09T06:45:05.396Z,20.65
2022-09-09T06:46:05.566Z,20.66
2022-09-09T06:47:05.820Z,20.72
2022-09-09T06:48:05.944Z,20.78
2022-09-09T06:49:06.137Z,20.84
2022-09-09T06:50:06.312Z,20.92
2022-09-09T06:51:06.499Z,20.92
2022-09-09T06:52:06.676Z,20.93
2022-09-09T06:53:06.848Z,20.88
2022-09-09T06:54:07.123Z,20.87
2022-09-09T06:55:07.197Z,20.92
2022-09-09T06:56:07.387Z,20.96
2022-09-09T06:57:20.926Z,21.02
2022-09-09T06:58:08.727Z,21.09
2022-09-09T06:59:07.967Z,21.18
2022-09-09T07:00:08.105Z,21.27
2022-09-09T07:01:08.336Z,21.33
2022-09-09T07:02:08.495Z,21.42
2022-09-09T07:03:08.628Z,21.57
2022-09-09T07:04:08.875Z,21.70
2022-09-09T07:05:08.977Z,21.89
2022-09-09T07:06:09.158Z,22.06
2022-09-09T07:07:09.351Z,22.20
2022-09-09T07:08:09.509Z,22.29
2022-09-09T07:09:09.718Z,22.41
2022-09-09T07:10:09.858Z,22.53
2022-09-09T07:11:12.468Z,22.65
2022-09-09T07:12:10.217Z,22.75
2022-09-09T07:13:10.417Z,22.85
2022-09-09T07:14:10.558Z,22.96
2022-09-09T07:15:10.757Z,23.05
2022-09-09T07:16:10.954Z,23.15
2022-09-09T07:17:11.100Z,23.20
2022-09-09T07:18:11.281Z,23.23
2022-09-09T07:19:11.432Z,23.25
2022-09-09T07:20:11.609Z,23.32
2022-09-09T07:21:11.806Z,23.36
2022-09-09T07:22:11.969Z,23.37
2022-09-09T07:23:12.169Z,23.37
2022-09-09T07:24:13.792Z,23.39
2022-09-09T07:25:12.530Z,23.40
2022-09-09T07:26:12.699Z,23.41
2022-09-09T07:27:12.882Z,23.44
2022-09-09T07:28:13.120Z,23.47
2022-09-09T07:29:16.077Z,23.51
2022-09-09T07:30:20.920Z,23.61
2022-09-09T07:31:14.622Z,23.68
2022-09-09T07:32:13.730Z,23.71
2022-09-09T07:33:13.940Z,23.76
2022-09-09T07:34:14.094Z,23.78
2022-09-09T07:35:14.251Z,23.83
2022-09-09T07:36:14.420Z,23.91
2022-09-09T07:37:14.608Z,23.98
2022-09-09T07:38:14.793Z,24.05
2022-09-09T07:39:14.970Z,24.13
2022-09-09T07:40:15.158Z,24.23
2022-09-09T07:41:15.291Z,24.33
2022-09-09T07:42:15.461Z,24.45
2022-09-09T07:43:17.435Z,24.54
2022-09-09T07:44:15.810Z,24.69
2022-09-09T07:45:15.972Z,24.80
2022-09-09T07:46:16.216Z,24.92
2022-09-09T07:47:16.332Z,25.01
2022-09-09T07:48:16.512Z,25.11
2022-09-09T07:49:16.683Z,25.26
2022-09-09T07:50:16.862Z,25.44
2022-09-09T07:51:17.040Z,25.60
2022-09-09T07:52:19.574Z,25.75
2022-09-09T07:53:17.395Z,25.84
2022-09-09T07:54:17.577Z,25.93
2022-09-09T07:55:17.752Z,25.98
2022-09-09T07:56:17.912Z,25.98
2022-09-09T07:57:19.551Z,26.02
2022-09-09T07:58:18.283Z,26.13
2022-09-09T07:59:18.443Z,26.21
2022-09-09T08:00:18.594Z,26.23
2022-09-09T08:01:18.825Z,26.25
2022-09-09T08:02:18.955Z,26.28
2022-09-09T08:03:19.166Z,26.31
2022-09-09T08:04:19.264Z,26.26
2022-09-09T08:05:19.446Z,26.22
2022-09-09T08:06:19.616Z,26.26
2022-09-09T08:07:19.818Z,26.38
2022-09-09T08:08:19.945Z,26.55
2022-09-09T08:09:20.135Z,26.71
2022-09-09T08:10:20.389Z,27.02
2022-09-09T08:11:20.495Z,27.42
2022-09-09T08:12:20.666Z,27.60
2022-09-09T08:13:20.845Z,27.63
2022-09-09T08:14:21.016Z,27.58
2022-09-09T08:15:21.206Z,27.48
2022-09-09T08:16:21.399Z,27.39
2022-09-09T08:17:21.588Z,27.22
2022-09-09T08:18:21.716Z,26.95
2022-09-09T08:19:21.883Z,26.81
2022-09-09T08:20:22.047Z,26.80
2022-09-09T08:21:22.227Z,26.84
2022-09-09T08:22:22.387Z,27.05
2022-09-09T08:23:22.557Z,27.36
2022-09-09T08:24:22.717Z,27.49
2022-09-09T08:25:22.888Z,27.63
2022-09-09T08:26:23.059Z,27.80
2022-09-09T08:27:23.238Z,27.85
2022-09-09T08:28:23.417Z,27.95
2022-09-09T08:29:23.614Z,28.12
2022-09-09T08:30:23.789Z,28.30
2022-09-09T08:32:24.192Z,28.54
2022-09-09T08:33:24.350Z,28.48
2022-09-09T08:34:24.518Z,28.38
2022-09-09T08:35:24.690Z,28.17
2022-09-09T08:36:24.861Z,28.01
2022-09-09T08:37:25.044Z,27.83
2022-09-09T08:38:25.199Z,27.67
2022-09-09T08:39:25.369Z,27.59
2022-09-09T08:40:25.546Z,27.48
2022-09-09T08:41:25.711Z,27.37
2022-09-09T08:42:25.902Z,27.26
2022-09-09T08:43:26.060Z,27.12
2022-09-09T08:44:26.231Z,26.99
2022-09-09T08:45:26.402Z,26.95
2022-09-09T08:46:26.663Z,26.88
2022-09-09T08:47:30.522Z,26.85
2022-09-09T08:48:27.906Z,26.88
2022-09-09T08:49:27.076Z,26.83
2022-09-09T08:50:27.233Z,26.84
2022-09-09T08:51:27.411Z,26.89
2022-09-09T08:52:27.624Z,26.95
2022-09-09T08:53:27.771Z,27.11
2022-09-09T08:54:50.632Z,27.29
2022-09-09T08:55:29.079Z,27.45
2022-09-09T08:56:28.235Z,27.54
2022-09-09T08:57:28.439Z,27.55
2022-09-09T08:58:28.563Z,27.54
2022-09-09T08:59:28.762Z,27.58
2022-09-09T09:00:28.884Z,27.58
2022-09-09T09:01:29.122Z,27.68
2022-09-09T09:02:29.225Z,27.83
2022-09-09T09:03:29.404Z,28.00
2022-09-09T09:04:29.630Z,28.25
2022-09-09T09:05:29.753Z,28.48
2022-09-09T09:06:29.944Z,28.85
2022-09-09T09:07:32.832Z,29.35
2022-09-09T09:08:30.305Z,30.06
2022-09-09T09:09:30.496Z,31.03
2022-09-09T09:10:41.680Z,32.19
2022-09-09T09:11:31.881Z,33.42
2022-09-09T09:12:31.035Z,34.60
2022-09-09T09:13:31.213Z,35.73
2022-09-09T09:14:31.483Z,36.70
2022-09-09T09:15:32.699Z,37.33
2022-09-09T09:16:31.739Z,37.78
2022-09-09T09:17:31.938Z,38.14
2022-09-09T09:18:32.106Z,38.46
2022-09-09T09:19:32.287Z,38.62
2022-09-09T09:20:32.459Z,38.89
2022-09-09T09:21:32.638Z,39.04
2022-09-09T09:22:32.828Z,39.02
2022-09-09T09:23:32.968Z,39.00
2022-09-09T09:24:33.139Z,38.96
2022-09-09T09:25:33.331Z,38.91
2022-09-09T09:26:33.541Z,39.17
2022-09-09T09:27:33.721Z,39.60
2022-09-09T09:28:33.937Z,40.00
2022-09-09T09:29:38.751Z,39.87
2022-09-09T09:30:35.220Z,39.94
2022-09-09T09:31:34.410Z,40.41
2022-09-09T09:32:34.600Z,40.84
2022-09-09T09:33:34.741Z,41.28
2022-09-09T09:34:34.931Z,41.74
2022-09-09T09:35:40.020Z,42.02
2022-09-09T09:36:36.274Z,42.19
2022-09-09T09:37:35.929Z,42.31
2022-09-09T09:40:36.992Z,41.80
2022-09-09T09:41:36.181Z,41.85
2022-09-09T09:42:36.373Z,42.06
2022-09-09T09:43:36.624Z,42.29
2022-09-09T09:44:36.703Z,42.69
2022-09-09T09:45:36.878Z,42.97
2022-09-09T09:46:37.106Z,42.91
2022-09-09T09:47:37.255Z,42.85
2022-09-09T09:48:37.435Z,42.41
2022-09-09T09:49:37.605Z,41.88
2022-09-09T09:50:37.785Z,41.62
2022-09-09T09:51:37.955Z,41.52
2022-09-09T09:52:38.146Z,41.44
2022-09-09T09:53:38.349Z,41.29
2022-09-09T09:54:38.477Z,40.80
2022-09-09T09:55:38.637Z,40.06
2022-09-09T09:56:38.846Z,39.25
2022-09-09T09:57:39.086Z,38.57
2022-09-09T09:58:39.212Z,38.17
2022-09-09T09:59:40.294Z,37.77
2022-09-09T10:00:39.537Z,37.26
2022-09-09T10:01:39.782Z,36.80
2022-09-09T10:02:39.918Z,36.36
2022-09-09T10:03:40.059Z,36.04
2022-09-09T10:04:40.300Z,35.80
2022-09-09T10:05:40.401Z,35.49
2022-09-09T10:06:40.589Z,35.18
2022-09-09T10:07:40.778Z,34.85
2022-09-09T10:08:40.951Z,34.48
2022-09-09T10:09:41.111Z,34.16
2022-09-09T10:10:44.973Z,33.94
2022-09-09T10:11:42.485Z,33.76
2022-09-09T10:12:41.697Z,33.58
2022-09-09T10:13:41.840Z,33.43
2022-09-09T10:14:42.011Z,33.22
2022-09-09T10:15:42.179Z,33.04
2022-09-09T10:16:42.352Z,32.82
2022-09-09T10:17:42.546Z,32.59
2022-09-09T10:18:42.734Z,32.34
2022-09-09T10:19:42.872Z,32.07
2022-09-09T10:20:43.060Z,31.81
2022-09-09T10:21:43.243Z,31.62
2022-09-09T10:22:43.513Z,31.49
2022-09-09T10:23:43.630Z,31.33
2022-09-09T10:24:43.802Z,31.17
2022-09-09T10:25:43.924Z,31.03
2022-09-09T10:26:44.106Z,30.90
2022-09-09T10:27:44.300Z,30.75
2022-09-09T10:28:44.483Z,30.62
2022-09-09T10:29:44.604Z,30.47
2022-09-09T10:30:44.868Z,30.32
2022-09-09T10:31:44.955Z,30.18
2022-09-09T10:32:45.166Z,30.02
2022-09-09T10:33:45.339Z,29.84
2022-09-09T10:34:45.516Z,29.69
2022-09-09T10:35:45.696Z,29.59
2022-09-09T10:36:45.890Z,29.51
2022-09-09T10:37:46.093Z,29.41
2022-09-09T10:38:46.240Z,29.35
2022-09-09T10:39:46.464Z,29.24
2022-09-09T10:40:46.586Z,29.17
2022-09-09T10:41:46.770Z,29.10
2022-09-09T10:42:46.977Z,29.10
2022-09-09T10:43:47.125Z,29.07
2022-09-09T10:44:47.310Z,29.05
2022-09-09T10:45:47.524Z,29.05
2022-09-09T10:46:47.677Z,29.04
2022-09-09T10:47:47.858Z,29.01
2022-09-09T10:48:48.015Z,28.93
2022-09-09T10:49:48.206Z,28.86
2022-09-09T10:51:05.101Z,28.82
2022-09-09T10:51:49.539Z,28.79
2022-09-09T10:52:48.736Z,28.78
2022-09-09T10:53:48.878Z,28.79
2022-09-09T10:54:49.069Z,28.81
2022-09-09T10:55:49.249Z,28.70
2022-09-09T10:56:49.445Z,28.60
2022-09-09T10:57:49.611Z,28.54
2022-09-09T10:58:49.779Z,28.57
2022-09-09T10:59:49.900Z,28.64
2022-09-09T11:00:52.049Z,28.70
2022-09-09T11:01:50.354Z,28.78
2022-09-09T11:02:50.439Z,28.81
2022-09-09T11:03:50.643Z,28.78
2022-09-09T11:04:50.809Z,28.72
2022-09-09T11:05:50.946Z,28.66
2022-09-09T11:06:51.131Z,28.60
2022-09-09T11:07:51.302Z,28.54
2022-09-09T11:08:53.823Z,28.47
2022-09-09T11:09:52.594Z,28.38
2022-09-09T11:10:51.781Z,28.37
2022-09-09T11:11:51.951Z,28.38
2022-09-09T11:12:52.161Z,28.38
2022-09-09T11:13:52.302Z,28.45
2022-09-09T11:14:52.494Z,28.56
2022-09-09T11:15:52.680Z,28.70
2022-09-09T11:16:52.895Z,28.84
2022-09-09T11:17:52.983Z,28.89
2022-09-09T11:18:53.163Z,28.93
2022-09-09T11:19:53.343Z,29.02
2022-09-09T11:20:53.534Z,29.04
2022-09-09T11:21:53.733Z,29.10
2022-09-09T11:22:53.919Z,29.17
2022-09-09T11:23:54.063Z,29.20
2022-09-09T11:24:54.244Z,29.08
2022-09-09T11:25:54.449Z,28.97
2022-09-09T11:26:54.638Z,29.02
2022-09-09T11:27:54.817Z,29.02
2022-09-09T11:28:54.987Z,29.08
2022-09-09T11:29:55.157Z,29.12
2022-09-09T11:30:56.946Z,29.13
2022-09-09T11:31:55.525Z,29.19
2022-09-09T11:32:55.664Z,29.22
2022-09-09T11:33:55.835Z,29.22
2022-09-09T11:34:56.044Z,29.19
2022-09-09T11:35:56.186Z,29.13
2022-09-09T11:36:56.395Z,29.05
2022-09-09T11:37:56.537Z,28.96
2022-09-09T11:38:56.737Z,28.89
2022-09-09T11:39:56.920Z,28.85
2022-09-09T11:40:57.076Z,28.86
2022-09-09T11:41:57.256Z,28.97
2022-09-09T11:42:57.439Z,29.14
2022-09-09T11:43:57.607Z,29.26
2022-09-09T11:44:57.786Z,29.29
2022-09-09T11:46:00.349Z,29.34
2022-09-09T11:46:58.179Z,29.34
2022-09-09T11:47:58.309Z,29.36
2022-09-09T11:48:58.488Z,29.35
2022-09-09T11:49:58.681Z,29.38
2022-09-09T11:50:58.849Z,29.39
2022-09-09T11:51:59.039Z,29.36
2022-09-09T11:52:59.249Z,29.32
2022-09-09T11:53:59.379Z,29.34
2022-09-09T11:54:59.577Z,29.35
2022-09-09T11:55:59.729Z,29.29
2022-09-09T11:56:59.916Z,29.24
2022-09-09T11:58:00.060Z,29.17
2022-09-09T11:59:00.234Z,29.12
2022-09-09T12:00:00.417Z,29.02
2022-09-09T12:01:00.591Z,28.97
2022-09-09T12:02:00.788Z,28.93
2022-09-09T12:03:00.931Z,28.84
2022-09-09T12:04:01.162Z,28.76
2022-09-09T12:05:01.333Z,28.70
2022-09-09T12:06:01.460Z,28.67
2022-09-09T12:07:01.675Z,28.66
2022-09-09T12:08:01.801Z,28.75
2022-09-09T12:09:01.983Z,28.84
2022-09-09T12:10:02.175Z,28.96
2022-09-09T12:11:02.342Z,29.05
2022-09-09T12:12:02.551Z,29.08
2022-09-09T12:13:02.722Z,29.14
2022-09-09T12:14:02.852Z,29.17
2022-09-09T12:15:03.042Z,29.16
2022-09-09T12:16:03.223Z,29.14
2022-09-09T12:17:03.453Z,29.04
2022-09-09T12:18:03.985Z,29.01
2022-09-09T12:19:03.804Z,28.98
2022-09-09T12:20:03.957Z,28.97
2022-09-09T12:21:04.134Z,28.89
2022-09-09T12:22:04.316Z,28.79
2022-09-09T12:23:04.493Z,28.78
2022-09-09T12:24:04.666Z,28.72
2022-09-09T12:25:04.877Z,28.64
2022-09-09T12:26:05.036Z,28.66
2022-09-09T12:27:05.714Z,28.69
2022-09-09T12:28:05.375Z,28.70
2022-09-09T12:29:05.557Z,28.75
2022-09-09T12:30:05.735Z,28.72
2022-09-09T12:31:05.973Z,28.69
2022-09-09T12:32:06.124Z,28.69
2022-09-09T12:33:06.266Z,28.72
2022-09-09T12:34:06.446Z,28.76
2022-09-09T12:35:06.677Z,28.84
2022-09-09T12:36:06.817Z,28.86
2022-09-09T12:37:07.021Z,28.86
2022-09-09T12:38:07.146Z,28.88
2022-09-09T12:39:07.328Z,28.86
2022-09-09T12:40:07.598Z,28.86
2022-09-09T12:41:07.688Z,28.86
2022-09-09T12:42:07.897Z,28.86
2022-09-09T12:43:08.085Z,28.85
2022-09-09T12:44:08.218Z,28.84
2022-09-09T12:45:08.399Z,28.81
2022-09-09T12:46:08.618Z,28.79
2022-09-09T12:47:08.758Z,28.75
2022-09-09T12:48:08.970Z,28.66
2022-09-09T12:49:09.180Z,28.59
2022-09-09T12:50:09.339Z,28.51
2022-09-09T12:51:09.507Z,28.49
2022-09-09T12:52:09.710Z,28.38
2022-09-09T12:53:09.880Z,28.20
2022-09-09T12:54:10.073Z,28.14
2022-09-09T12:55:10.250Z,28.12
2022-09-09T12:56:10.418Z,28.04
2022-09-09T12:57:10.628Z,27.98
2022-09-09T12:58:10.759Z,27.98